createdAt,value
2023-02-16T00:00:51.577Z,23.38
2023-02-16T00:03:37.258Z,23.23
2023-02-16T00:06:23.576Z,23.23
2023-02-16T00:09:08.903Z,23.80
2023-02-16T00:12:12.807Z,23.38
2023-02-16T00:14:58.440Z,23.30
2023-02-16T00:17:43.943Z,25.17
2023-02-16T00:20:32.056Z,25.27
2023-02-16T00:23:17.453Z,24.25
2023-02-16T00:26:03.134Z,24.38
2023-02-16T00:28:54.036Z,25.63
2023-02-16T00:31:39.838Z,27.30
2023-02-16T00:34:40.243Z,28.95
2023-02-16T00:37:25.446Z,28.17
2023-02-16T00:40:14.310Z,25.90
2023-02-16T00:43:00.148Z,29.85
2023-02-16T00:45:45.209Z,30.95
2023-02-16T00:48:30.743Z,30.83
2023-02-16T00:51:25.479Z,31.60
2023-02-16T00:54:11.318Z,28.70
2023-02-16T00:56:57.191Z,31.17
2023-02-16T00:59:42.592Z,29.52
2023-02-16T01:02:28.986Z,28.50
2023-02-16T01:05:14.877Z,28.30
2023-02-16T01:08:19.962Z,28.42
2023-02-16T01:11:07.743Z,29.55
2023-02-16T01:13:54.738Z,32.20
2023-02-16T01:16:41.610Z,32.03
2023-02-16T01:19:27.402Z,31.98
2023-02-16T01:22:12.536Z,31.40
2023-02-16T01:24:57.908Z,29.90
2023-02-16T01:27:44.558Z,30.98
2023-02-16T01:30:31.865Z,31.63
2023-02-16T01:33:17.682Z,30.58
2023-02-16T01:36:04.781Z,31.90
2023-02-16T01:38:50.076Z,31.92
2023-02-16T01:41:53.930Z,32.00
2023-02-16T01:44:48.976Z,34.33
2023-02-16T01:48:05.245Z,33.65
2023-02-16T01:51:12.710Z,35.03
2023-02-16T01:54:40.814Z,33.22
2023-02-16T01:57:43.659Z,33.00
2023-02-16T02:00:53.053Z,32.40
2023-02-16T02:03:57.100Z,30.02
2023-02-16T02:06:42.346Z,31.92
2023-02-16T02:09:44.852Z,31.23
2023-02-16T02:15:24.603Z,32.25
2023-02-16T02:18:10.066Z,30.80
2023-02-16T02:21:28.543Z,29.23
2023-02-16T02:24:49.178Z,31.13
2023-02-16T02:27:40.865Z,29.27
2023-02-16T02:30:53.563Z,29.88
2023-02-16T02:33:50.942Z,30.33
2023-02-16T02:36:50.798Z,30.08
2023-02-16T02:39:39.545Z,30.23
2023-02-16T02:42:30.681Z,30.00
2023-02-16T02:45:27.846Z,28.17
2023-02-16T02:48:13.052Z,30.27
2023-02-16T02:51:26.626Z,31.92
2023-02-16T02:54:39.362Z,32.78
2023-02-16T02:57:53.390Z,34.38
2023-02-16T03:00:47.496Z,32.15
2023-02-16T03:03:43.504Z,31.13
2023-02-16T03:06:34.522Z,31.10
2023-02-16T03:09:21.087Z,30.40
2023-02-16T03:12:27.152Z,31.02
2023-02-16T03:15:14.318Z,31.70
2023-02-16T03:18:19.695Z,30.58
2023-02-16T03:21:24.053Z,30.00
2023-02-16T03:24:31.453Z,30.83
2023-02-16T03:27:50.398Z,30.48
2023-02-16T03:30:36.176Z,33.42
2023-02-16T03:33:23.458Z,31.50
2023-02-16T03:36:09.766Z,33.55
2023-02-16T03:38:56.958Z,31.63
2023-02-16T03:41:46.654Z,31.15
2023-02-16T03:44:31.751Z,31.05
2023-02-16T03:47:17.196Z,29.00
2023-02-16T03:50:02.828Z,29.48
2023-02-16T03:52:48.433Z,30.02
2023-02-16T03:55:45.431Z,30.77
2023-02-16T03:58:30.597Z,30.42
2023-02-16T04:01:16.023Z,29.10
2023-02-16T04:04:01.498Z,29.02
2023-02-16T04:06:46.853Z,26.98
2023-02-16T04:09:32.175Z,29.27
2023-02-16T04:12:36.055Z,30.40
2023-02-16T04:15:24.280Z,29.08
2023-02-16T04:18:09.633Z,28.95
2023-02-16T04:20:55.270Z,28.15
2023-02-16T04:23:40.795Z,27.60
2023-02-16T04:26:26.203Z,29.00
2023-02-16T04:29:11.558Z,27.77
2023-02-16T04:31:57.371Z,27.80
2023-02-16T04:34:42.868Z,29.48
2023-02-16T04:37:28.102Z,28.08
2023-02-16T04:40:15.643Z,30.58
2023-02-16T04:43:00.891Z,29.63
2023-02-16T04:45:46.286Z,28.52
2023-02-16T04:48:31.721Z,30.45
2023-02-16T04:51:17.267Z,28.75
2023-02-16T04:54:02.380Z,27.10
2023-02-16T04:56:48.595Z,27.13
2023-02-16T04:59:33.727Z,27.70
2023-02-16T05:02:19.300Z,26.70
2023-02-16T05:05:04.721Z,26.50
2023-02-16T05:07:50.061Z,26.80
2023-02-16T05:10:35.653Z,27.08
2023-02-16T05:13:41.186Z,27.48
2023-02-16T05:16:27.551Z,27.48
2023-02-16T05:19:13.161Z,27.00
2023-02-16T05:21:59.657Z,27.65
2023-02-16T05:24:45.788Z,25.95
2023-02-16T05:27:31.804Z,27.98
2023-02-16T05:30:17.387Z,25.88
2023-02-16T05:33:02.925Z,28.23
2023-02-16T05:35:48.365Z,25.67
2023-02-16T05:38:33.986Z,26.52
2023-02-16T05:41:25.341Z,27.77
2023-02-16T05:44:11.577Z,26.48
2023-02-16T05:46:56.861Z,28.60
2023-02-16T05:49:42.358Z,28.38
2023-02-16T05:52:27.770Z,27.52
2023-02-16T05:55:13.226Z,28.02
2023-02-16T05:57:58.511Z,27.95
2023-02-16T06:00:43.876Z,28.25
2023-02-16T06:03:29.286Z,28.20
2023-02-16T06:06:14.591Z,26.30
2023-02-16T06:09:01.296Z,26.20
2023-02-16T06:11:46.718Z,25.02
2023-02-16T06:14:32.486Z,25.40
2023-02-16T06:17:18.277Z,23.73
2023-02-16T06:20:04.990Z,24.40
2023-02-16T06:22:50.398Z,24.13
2023-02-16T06:25:35.947Z,27.08
2023-02-16T06:28:21.368Z,24.75
2023-02-16T06:31:07.593Z,23.77
2023-02-16T06:33:54.146Z,23.95
2023-02-16T06:36:42.337Z,23.70
2023-02-16T06:39:28.038Z,23.52
2023-02-16T06:42:13.450Z,23.38
2023-02-16T06:44:58.941Z,23.92
2023-02-16T06:47:44.346Z,23.42
2023-02-16T06:50:29.806Z,25.38
2023-02-16T06:53:15.405Z,25.83
2023-02-16T06:56:00.746Z,24.85
2023-02-16T06:58:46.188Z,25.88
2023-02-16T07:01:31.612Z,24.77
2023-02-16T07:04:16.960Z,24.58
2023-02-16T07:07:02.684Z,25.33
2023-02-16T07:09:48.085Z,26.55
2023-02-16T07:12:33.707Z,26.15
2023-02-16T07:15:18.806Z,26.95
2023-02-16T07:18:04.278Z,25.52
2023-02-16T07:20:49.729Z,26.40
2023-02-16T07:23:34.896Z,26.25
2023-02-16T07:26:20.759Z,25.10
2023-02-16T07:29:05.945Z,24.58
2023-02-16T07:31:51.425Z,24.42
2023-02-16T07:34:36.656Z,24.38
2023-02-16T07:37:22.142Z,25.25
2023-02-16T07:40:08.439Z,24.25
2023-02-16T07:42:54.155Z,25.23
2023-02-16T07:45:39.763Z,24.77
2023-02-16T07:48:25.075Z,26.85
2023-02-16T07:51:10.568Z,25.75
2023-02-16T07:53:56.819Z,29.63
2023-02-16T07:56:41.814Z,30.50
2023-02-16T07:59:27.617Z,28.52
2023-02-16T08:02:20.619Z,27.63
2023-02-16T08:05:06.554Z,27.75
2023-02-16T08:07:51.919Z,26.73
2023-02-16T08:10:37.534Z,26.52
2023-02-16T08:13:23.508Z,26.77
2023-02-16T08:16:25.738Z,24.85
2023-02-16T08:19:13.074Z,26.15
2023-02-16T08:21:59.841Z,24.85
2023-02-16T08:24:45.424Z,24.38
2023-02-16T08:27:31.093Z,24.90
2023-02-16T08:30:18.308Z,24.60
2023-02-16T08:33:03.950Z,24.88
2023-02-16T08:35:49.334Z,25.58
2023-02-16T08:38:34.923Z,25.30
2023-02-16T08:41:22.400Z,24.80
2023-02-16T08:44:09.475Z,25.58
2023-02-16T08:46:56.550Z,24.85
2023-02-16T08:49:44.228Z,27.48
2023-02-16T08:52:29.786Z,26.35
2023-02-16T08:55:15.382Z,30.73
2023-02-16T08:58:01.056Z,25.88
2023-02-16T09:00:46.348Z,25.60
2023-02-16T09:03:32.600Z,24.52
2023-02-16T09:06:22.594Z,24.67
2023-02-16T09:09:08.733Z,23.77
2023-02-16T09:11:54.400Z,24.77
2023-02-16T09:14:40.523Z,23.73
2023-02-16T09:17:27.028Z,23.52
2023-02-16T09:20:12.832Z,24.60
2023-02-16T09:22:58.080Z,25.67
2023-02-16T09:25:43.406Z,24.92
2023-02-16T09:28:30.681Z,26.15
2023-02-16T09:31:28.915Z,27.90
2023-02-16T09:34:21.574Z,28.50
2023-02-16T09:37:07.317Z,29.23
2023-02-16T09:39:52.553Z,27.58
2023-02-16T09:43:12.509Z,27.95
2023-02-16T09:45:58.903Z,33.80
2023-02-16T09:48:48.574Z,32.13
2023-02-16T09:51:41.048Z,29.23
2023-02-16T09:54:44.690Z,28.35
2023-02-16T09:57:41.916Z,28.90
2023-02-16T10:00:53.753Z,30.65
2023-02-16T10:04:07.154Z,27.43
2023-02-16T10:09:47.199Z,28.98
2023-02-16T10:12:39.543Z,27.73
2023-02-16T10:15:27.778Z,27.48
2023-02-16T10:18:33.347Z,27.25
2023-02-16T10:21:27.421Z,27.60
2023-02-16T10:24:14.909Z,27.40
2023-02-16T10:27:07.452Z,27.90
2023-02-16T10:29:54.148Z,29.17
2023-02-16T10:32:54.478Z,26.00
2023-02-16T10:35:48.481Z,25.73
2023-02-16T10:38:48.846Z,26.02
2023-02-16T10:41:43.538Z,25.40
2023-02-16T10:44:40.184Z,24.80
2023-02-16T10:47:40.884Z,24.80
2023-02-16T10:50:42.888Z,25.75
2023-02-16T10:53:57.114Z,24.70
2023-02-16T10:56:54.171Z,25.58
2023-02-16T10:59:42.404Z,28.55
2023-02-16T11:02:42.260Z,29.63
2023-02-16T11:05:38.619Z,28.88
2023-02-16T11:08:25.685Z,27.60
2023-02-16T11:11:11.153Z,27.40
2023-02-16T11:14:02.872Z,27.73
2023-02-16T11:16:49.294Z,27.40
2023-02-16T11:19:35.322Z,26.65
2023-02-16T11:22:41.390Z,25.33
2023-02-16T11:25:27.373Z,25.17
2023-02-16T11:28:25.063Z,26.95
2023-02-16T11:31:18.800Z,25.70
2023-02-16T11:34:08.404Z,27.95
2023-02-16T11:37:06.615Z,28.23
2023-02-16T11:40:02.597Z,27.63
2023-02-16T11:42:53.476Z,31.70
2023-02-16T11:45:38.890Z,28.75
2023-02-16T11:48:31.234Z,28.88
2023-02-16T11:51:30.540Z,30.55
2023-02-16T11:54:18.614Z,28.52
2023-02-16T11:57:06.722Z,26.63
2023-02-16T11:59:52.076Z,26.35
2023-02-16T12:03:11.368Z,27.15
2023-02-16T12:06:30.898Z,25.20
2023-02-16T12:09:53.649Z,25.00
2023-02-16T12:13:03.898Z,26.20
2023-02-16T12:16:14.981Z,25.42
2023-02-16T12:19:33.594Z,25.38
2023-02-16T12:22:49.132Z,25.23
2023-02-16T12:25:40.745Z,24.25
2023-02-16T12:28:57.198Z,23.53
2023-02-16T12:31:57.681Z,22.05
2023-02-16T12:34:58.356Z,23.23
2023-02-16T12:38:59.484Z,24.35
2023-02-16T12:42:14.304Z,24.80
2023-02-16T12:45:10.772Z,21.63
2023-02-16T12:48:04.930Z,21.13
2023-02-16T12:50:52.700Z,19.70
2023-02-16T12:53:56.255Z,20.08
2023-02-16T12:56:50.224Z,20.17
2023-02-16T12:59:50.805Z,19.77
2023-02-16T13:02:40.620Z,19.20
2023-02-16T13:05:32.277Z,18.42
2023-02-16T13:08:39.957Z,20.63
2023-02-16T13:11:32.591Z,22.77
2023-02-16T13:14:22.013Z,18.77
2023-02-16T13:17:28.339Z,18.10
2023-02-16T13:20:16.699Z,18.65
2023-02-16T13:23:14.255Z,17.45
2023-02-16T13:26:14.647Z,18.77
2023-02-16T13:29:23.142Z,16.95
2023-02-16T13:32:41.796Z,16.30
2023-02-16T13:36:00.809Z,15.13
2023-02-16T13:39:18.014Z,16.88
2023-02-16T13:42:30.045Z,17.13
2023-02-16T13:45:22.814Z,16.15
2023-02-16T13:48:22.125Z,17.42
2023-02-16T13:51:14.914Z,16.45
2023-02-16T13:54:02.900Z,16.38
2023-02-16T13:56:48.455Z,17.13
2023-02-16T13:59:36.958Z,17.90
2023-02-16T14:02:55.708Z,15.65
2023-02-16T14:05:43.750Z,15.88
2023-02-16T14:08:30.764Z,14.77
2023-02-16T14:11:16.587Z,15.23
2023-02-16T14:14:02.397Z,14.73
2023-02-16T14:16:48.002Z,14.73
2023-02-16T14:19:35.108Z,14.50
2023-02-16T14:22:37.685Z,14.63
2023-02-16T14:25:23.207Z,14.48
2023-02-16T14:28:35.144Z,14.57
2023-02-16T14:31:22.810Z,14.65
2023-02-16T14:34:17.676Z,13.90
2023-02-16T14:37:31.696Z,15.50
2023-02-16T14:40:21.135Z,15.30
2023-02-16T14:43:24.056Z,15.23
2023-02-16T14:46:27.400Z,14.95
2023-02-16T14:49:38.054Z,15.98
2023-02-16T14:52:23.478Z,16.58
2023-02-16T15:07:23.130Z,17.27
2023-02-16T15:10:14.288Z,17.05
2023-02-16T15:12:59.747Z,16.85
2023-02-16T15:15:48.584Z,16.77
2023-02-16T15:18:40.236Z,16.95
2023-02-16T15:21:28.429Z,15.88
2023-02-16T15:24:24.623Z,15.30
2023-02-16T15:27:21.346Z,14.38
2023-02-16T15:30:25.976Z,15.73
2023-02-16T15:33:26.849Z,16.02
2023-02-16T15:36:15.613Z,16.08
2023-02-16T15:39:43.646Z,16.08
2023-02-16T15:42:31.878Z,16.60
2023-02-16T15:45:47.842Z,17.25
2023-02-16T15:48:38.146Z,17.27
2023-02-16T15:51:32.570Z,17.23
2023-02-16T15:54:28.047Z,16.40
2023-02-16T15:57:28.260Z,17.42
2023-02-16T16:00:20.816Z,17.15
2023-02-16T16:03:09.498Z,15.55
2023-02-16T16:06:01.747Z,16.67
2023-02-16T16:11:33.178Z,18.33
2023-02-16T16:14:18.839Z,17.25
2023-02-16T16:17:05.787Z,19.52
2023-02-16T16:19:51.290Z,18.75
2023-02-16T16:22:42.831Z,19.60
2023-02-16T16:25:34.030Z,19.73
2023-02-16T16:28:27.969Z,20.40
2023-02-16T16:31:21.422Z,20.48
2023-02-16T16:34:10.215Z,24.40
2023-02-16T16:36:56.971Z,21.05
2023-02-16T16:39:42.442Z,20.38
2023-02-16T16:42:28.374Z,22.08
2023-02-16T16:45:19.976Z,23.25
2023-02-16T16:48:21.721Z,25.58
2023-02-16T16:51:16.053Z,21.70
2023-02-16T16:54:04.493Z,21.15
2023-02-16T16:56:49.860Z,20.95
2023-02-16T18:36:20.575Z,14.50
2023-02-16T18:39:07.114Z,14.02
2023-02-16T18:41:52.487Z,13.48
2023-02-16T18:44:37.777Z,12.63
2023-02-16T18:47:23.568Z,13.02
2023-02-16T18:50:09.671Z,12.93
2023-02-16T18:52:55.088Z,11.10
2023-02-16T18:55:40.348Z,10.88
2023-02-16T18:58:25.807Z,11.68
2023-02-16T19:01:37.780Z,11.48
2023-02-16T19:04:24.102Z,10.40
2023-02-16T19:07:09.386Z,9.57
2023-02-16T19:09:54.788Z,10.38
2023-02-16T19:12:41.244Z,9.85
2023-02-16T19:15:26.928Z,10.50
2023-02-16T19:18:12.384Z,10.75
2023-02-16T19:20:57.664Z,11.05
2023-02-16T19:23:43.265Z,10.88
2023-02-16T19:26:28.813Z,11.68
2023-02-16T19:29:14.322Z,11.40
2023-02-16T19:31:59.803Z,12.10
2023-02-16T19:34:45.378Z,13.25
2023-02-16T19:37:30.881Z,14.00
2023-02-16T19:40:16.427Z,14.10
2023-02-16T19:43:01.734Z,14.85
2023-02-16T19:45:47.139Z,14.68
2023-02-16T19:48:33.178Z,15.40
2023-02-16T19:51:18.553Z,14.43
2023-02-16T19:54:04.160Z,15.27
2023-02-16T19:56:49.717Z,14.30
2023-02-16T19:59:35.142Z,15.27
2023-02-16T20:02:20.685Z,16.02
2023-02-16T20:05:06.821Z,14.40
2023-02-16T20:07:51.878Z,15.70
2023-02-16T20:10:43.231Z,13.18
2023-02-16T20:13:28.845Z,13.25
2023-02-16T20:16:15.107Z,14.93
2023-02-16T20:19:00.342Z,14.82
2023-02-16T20:21:46.380Z,14.68
2023-02-16T20:24:31.963Z,14.50
2023-02-16T20:27:17.702Z,15.57
2023-02-16T20:30:06.412Z,14.20
2023-02-16T20:32:52.021Z,14.88
2023-02-16T20:35:37.410Z,16.20
2023-02-16T20:38:23.022Z,13.95
2023-02-16T20:41:08.619Z,14.23
2023-02-16T20:43:54.339Z,14.48
2023-02-16T20:46:40.498Z,13.35
2023-02-16T20:49:26.144Z,14.77
2023-02-16T20:52:11.640Z,13.57
2023-02-16T20:54:57.059Z,13.85
2023-02-16T20:57:42.296Z,13.00
2023-02-16T21:00:28.248Z,14.65
2023-02-16T21:03:15.619Z,14.73
2023-02-16T21:06:01.135Z,15.52
2023-02-16T21:08:46.982Z,14.82
2023-02-16T21:11:32.776Z,15.50
2023-02-16T21:14:18.214Z,13.95
2023-02-16T21:17:05.874Z,14.18
2023-02-16T21:19:51.428Z,14.85
2023-02-16T21:22:37.152Z,15.23
2023-02-16T21:25:22.373Z,16.23
2023-02-16T21:28:07.820Z,15.38
2023-02-16T21:30:53.837Z,16.10
2023-02-16T21:33:39.400Z,16.38
2023-02-16T21:36:26.191Z,16.55
2023-02-16T21:39:12.003Z,18.55
2023-02-16T21:41:57.410Z,16.90
2023-02-16T21:44:45.041Z,19.38
2023-02-16T21:47:48.999Z,17.98
2023-02-16T21:50:38.252Z,17.65
2023-02-16T21:53:23.305Z,18.02
2023-02-16T21:56:23.752Z,17.02
2023-02-16T21:59:12.027Z,17.35
2023-02-16T22:01:59.095Z,16.65
2023-02-16T22:04:44.555Z,16.67
2023-02-16T22:07:29.900Z,16.23
2023-02-16T22:10:15.286Z,17.10
2023-02-16T22:13:01.052Z,17.05
2023-02-16T22:15:46.654Z,16.48
2023-02-16T22:18:32.310Z,16.00
2023-02-16T22:21:17.677Z,15.43
2023-02-16T22:24:03.376Z,14.70
2023-02-16T22:26:50.325Z,16.83
2023-02-16T22:29:36.267Z,16.23
2023-02-16T22:32:21.529Z,14.23
2023-02-16T22:35:08.106Z,14.60
2023-02-16T22:37:53.414Z,13.60
2023-02-16T22:40:38.879Z,13.68
2023-02-16T22:43:24.204Z,14.02
2023-02-16T22:46:15.182Z,13.43
2023-02-16T22:49:01.719Z,13.43
2023-02-16T22:51:47.284Z,11.75
2023-02-16T22:54:32.721Z,11.18
2023-02-16T22:57:18.491Z,11.55
2023-02-16T23:00:13.051Z,10.63
2023-02-16T23:02:58.138Z,9.43
2023-02-16T23:05:43.770Z,8.82
2023-02-16T23:08:29.123Z,9.38
2023-02-16T23:11:14.389Z,10.15
2023-02-16T23:14:00.135Z,8.60
2023-02-16T23:16:47.843Z,9.27
2023-02-16T23:19:33.714Z,8.07
2023-02-16T23:22:18.842Z,7.97
2023-02-16T23:25:22.981Z,8.00
2023-02-16T23:28:08.090Z,8.07
2023-02-16T23:30:56.569Z,8.07
2023-02-16T23:33:42.192Z,7.93
2023-02-16T23:36:27.663Z,7.90
2023-02-16T23:39:18.083Z,7.15
2023-02-16T23:42:03.493Z,6.95
2023-02-16T23:44:48.887Z,7.35
2023-02-16T23:47:34.373Z,7.45
2023-02-16T23:50:20.014Z,8.57
2023-02-16T23:53:05.302Z,7.72
2023-02-16T23:56:02.327Z,9.20
2023-02-16T23:58:48.945Z,8.52
